Time;durP1;ratioP1;P1;durP2;ratioP2;P2;SDS_P1;SDS_P2;PMS_P1;PMS_P2;Temp;Humidity;BMP_temperature;BMP_pressure;BME280_temperature;BME280_humidity;BME280_pressure;Samples;Min_cycle;Max_cycle;Signal;HPM_P1;HPM_P2
2023/06/23 00:00:52;;;;;;;12.52;5.05;;;;;;;;;;5007746;28;20057;-78
2023/06/23 00:03:19;;;;;;;11.52;4.78;;;;;;;;;;5014400;28;20063;-77
2023/06/23 00:05:46;;;;;;;17.92;5.18;;;;;;;;;;5034697;28;20037;-79
2023/06/23 00:08:13;;;;;;;13.32;4.32;;;;;;;;;;5053983;28;20064;-81
2023/06/23 00:10:39;;;;;;;12.32;4.13;;;;;;;;;;5049774;28;20048;-80
2023/06/23 00:13:12;;;;;;;10.30;4.30;;;;;;;;;;5052497;28;20124;-80
2023/06/23 00:16:06;;;;;;;13.88;4.80;;;;;;;;;;5064634;28;20037;-81
2023/06/23 00:18:36;;;;;;;11.67;4.50;;;;;;;;;;5059556;28;20045;-82
2023/06/23 00:21:07;;;;;;;15.48;4.90;;;;;;;;;;5044729;28;20057;-82
2023/06/23 00:23:34;;;;;;;14.13;5.05;;;;;;;;;;5053425;28;20763;-81
2023/06/23 00:26:01;;;;;;;10.85;4.95;;;;;;;;;;5044336;28;20524;-80
2023/06/23 00:28:30;;;;;;;20.65;5.22;;;;;;;;;;5053168;28;20057;-81
2023/06/23 00:30:57;;;;;;;11.80;4.75;;;;;;;;;;5032895;28;20060;-81
2023/06/23 00:33:24;;;;;;;13.40;5.30;;;;;;;;;;5049346;28;20049;-80
2023/06/23 00:35:51;;;;;;;12.95;5.53;;;;;;;;;;5048511;28;20041;-80
2023/06/23 00:38:18;;;;;;;12.48;5.82;;;;;;;;;;5045659;28;20050;-79
2023/06/23 00:40:44;;;;;;;14.63;5.97;;;;;;;;;;5058344;28;20045;-80
2023/06/23 00:43:11;;;;;;;14.50;5.90;;;;;;;;;;5049965;28;20037;-79
2023/06/23 00:45:39;;;;;;;11.38;5.75;;;;;;;;;;5029253;28;20157;-81
2023/06/23 00:48:08;;;;;;;13.32;6.32;;;;;;;;;;5030539;28;20049;-81
2023/06/23 00:50:34;;;;;;;18.48;6.88;;;;;;;;;;5045758;28;20639;-82
2023/06/23 00:53:02;;;;;;;13.80;7.07;;;;;;;;;;5046276;28;20136;-81
2023/06/23 00:55:29;;;;;;;12.80;6.03;;;;;;;;;;5030159;28;20137;-80
2023/06/23 00:57:57;;;;;;;13.10;6.60;;;;;;;;;;5033257;28;20049;-80
2023/06/23 01:00:27;;;;;;;14.82;7.07;;;;;;;;;;5032319;28;20703;-82
2023/06/23 01:02:55;;;;;;;15.75;6.43;;;;;;;;;;5030688;28;20041;-79
2023/06/23 01:05:23;;;;;;;15.73;6.65;;;;;;;;;;5011904;28;20048;-80
2023/06/23 01:07:49;;;;;;;16.20;6.80;;;;;;;;;;5033105;28;20103;-81
2023/06/23 01:10:20;;;;;;;21.50;8.23;;;;;;;;;;5033862;28;20156;-79
2023/06/23 01:12:50;;;;;;;14.02;7.20;;;;;;;;;;5016157;28;20421;-80
2023/06/23 01:15:23;;;;;;;21.27;8.50;;;;;;;;;;5033069;28;20084;-81
2023/06/23 01:18:11;;;;;;;17.92;8.23;;;;;;;;;;5032387;28;20041;-81
2023/06/23 01:20:39;;;;;;;23.67;9.38;;;;;;;;;;5013354;28;20056;-80
2023/06/23 01:23:21;;;;;;;22.80;8.95;;;;;;;;;;5033466;28;20072;-83
2023/06/23 01:25:54;;;;;;;22.50;7.65;;;;;;;;;;5046186;28;20052;-79
2023/06/23 01:28:39;;;;;;;19.92;8.25;;;;;;;;;;5030890;28;20068;-80
2023/06/23 01:31:08;;;;;;;22.20;8.03;;;;;;;;;;5030128;28;20057;-81
2023/06/23 01:33:38;;;;;;;17.95;7.47;;;;;;;;;;5030369;28;20053;-80
2023/06/23 01:36:07;;;;;;;20.13;7.60;;;;;;;;;;5029680;28;20042;-79
2023/06/23 01:38:36;;;;;;;19.13;8.02;;;;;;;;;;5029926;28;20068;-79
2023/06/23 01:41:08;;;;;;;22.27;8.52;;;;;;;;;;5045720;28;20042;-79
2023/06/23 01:43:37;;;;;;;16.60;8.40;;;;;;;;;;5031333;28;20100;-81
2023/06/23 01:46:12;;;;;;;18.30;8.00;;;;;;;;;;5029653;28;20064;-80
2023/06/23 01:48:41;;;;;;;15.48;7.75;;;;;;;;;;5032630;28;20365;-80
2023/06/23 01:51:28;;;;;;;21.17;8.15;;;;;;;;;;5031217;28;20046;-79
2023/06/23 01:53:56;;;;;;;20.48;7.72;;;;;;;;;;5030317;28;20210;-80
2023/06/23 01:56:24;;;;;;;15.20;8.15;;;;;;;;;;5026881;28;20469;-81
2023/06/23 01:58:51;;;;;;;17.55;8.15;;;;;;;;;;5028302;28;20091;-80
2023/06/23 02:01:18;;;;;;;20.15;8.35;;;;;;;;;;5046224;28;20107;-80
2023/06/23 02:03:47;;;;;;;18.60;8.57;;;;;;;;;;5031944;28;20171;-80
2023/06/23 02:06:15;;;;;;;18.33;8.48;;;;;;;;;;5048614;28;20429;-82
2023/06/23 02:08:46;;;;;;;18.73;8.38;;;;;;;;;;5032549;28;20064;-82
2023/06/23 02:11:13;;;;;;;15.90;7.78;;;;;;;;;;5030966;28;20068;-82
2023/06/23 02:13:44;;;;;;;21.25;7.68;;;;;;;;;;5032424;28;20050;-81
2023/06/23 02:16:12;;;;;;;15.00;7.90;;;;;;;;;;5029889;28;20041;-82
2023/06/23 02:18:40;;;;;;;17.45;7.55;;;;;;;;;;5031148;28;20140;-80
2023/06/23 02:21:10;;;;;;;21.75;7.95;;;;;;;;;;5045542;28;20041;-81
2023/06/23 02:23:38;;;;;;;16.67;7.35;;;;;;;;;;5046236;28;20053;-80
2023/06/23 02:26:06;;;;;;;14.35;7.22;;;;;;;;;;5029125;28;20038;-80
2023/06/23 02:28:34;;;;;;;18.95;7.38;;;;;;;;;;5047300;28;20070;-80
2023/06/23 02:31:02;;;;;;;17.98;7.28;;;;;;;;;;5046654;28;20056;-82
2023/06/23 02:33:29;;;;;;;18.70;7.30;;;;;;;;;;5033129;28;20095;-81
2023/06/23 02:35:57;;;;;;;16.77;6.63;;;;;;;;;;5031577;28;20295;-82
2023/06/23 02:38:25;;;;;;;12.48;6.57;;;;;;;;;;5038022;28;20083;-80
2023/06/23 02:40:52;;;;;;;14.80;6.45;;;;;;;;;;5046023;28;20045;-79
2023/06/23 02:43:24;;;;;;;16.60;6.78;;;;;;;;;;5033288;28;20034;-81
2023/06/23 02:45:54;;;;;;;17.05;6.20;;;;;;;;;;5046681;28;20564;-81
2023/06/23 02:48:23;;;;;;;17.40;6.85;;;;;;;;;;5031212;28;20064;-82
2023/06/23 02:50:52;;;;;;;14.07;6.22;;;;;;;;;;5048779;28;20048;-82
2023/06/23 02:53:21;;;;;;;19.67;6.82;;;;;;;;;;5033611;28;20501;-82
2023/06/23 02:55:49;;;;;;;23.33;6.45;;;;;;;;;;5031690;28;20045;-81
2023/06/23 02:58:17;;;;;;;12.70;6.28;;;;;;;;;;5029201;28;20056;-83
2023/06/23 03:00:47;;;;;;;18.17;6.70;;;;;;;;;;5015752;28;20046;-83
2023/06/23 03:03:15;;;;;;;16.75;6.53;;;;;;;;;;5016295;28;20065;-81
2023/06/23 03:05:44;;;;;;;22.25;6.93;;;;;;;;;;5031143;28;20069;-82
2023/06/23 03:08:10;;;;;;;15.15;6.45;;;;;;;;;;5030831;28;20042;-80
2023/06/23 03:10:39;;;;;;;20.23;6.85;;;;;;;;;;5014410;28;20046;-82
2023/06/23 03:13:09;;;;;;;16.70;7.35;;;;;;;;;;5030339;28;20125;-80
2023/06/23 03:15:38;;;;;;;16.67;6.95;;;;;;;;;;5029590;28;20074;-82
2023/06/23 03:18:08;;;;;;;18.80;7.25;;;;;;;;;;5016409;28;20521;-82
2023/06/23 03:20:35;;;;;;;16.05;7.40;;;;;;;;;;5030845;28;20045;-82
2023/06/23 03:23:04;;;;;;;22.55;7.13;;;;;;;;;;5032050;28;20104;-82
2023/06/23 03:25:31;;;;;;;17.05;7.90;;;;;;;;;;5011529;28;20073;-80
2023/06/23 03:28:02;;;;;;;20.80;7.60;;;;;;;;;;5011617;28;20050;-80
2023/06/23 03:30:32;;;;;;;20.27;7.70;;;;;;;;;;5027523;28;20046;-80
2023/06/23 03:33:03;;;;;;;18.90;7.40;;;;;;;;;;5037392;28;20453;-82
2023/06/23 03:35:37;;;;;;;15.57;7.30;;;;;;;;;;5021956;28;20045;-80
2023/06/23 03:38:07;;;;;;;19.88;7.15;;;;;;;;;;5023662;28;20049;-81
2023/06/23 03:40:36;;;;;;;21.33;8.27;;;;;;;;;;5028211;28;20100;-85
2023/06/23 03:43:08;;;;;;;23.00;8.32;;;;;;;;;;5043038;28;20048;-83
2023/06/23 03:45:37;;;;;;;21.48;9.30;;;;;;;;;;5029825;28;20034;-85
2023/06/23 03:48:06;;;;;;;19.88;8.63;;;;;;;;;;5011945;28;20107;-84
2023/06/23 03:50:34;;;;;;;21.77;9.38;;;;;;;;;;5028481;28;20149;-80
2023/06/23 03:53:02;;;;;;;17.17;8.75;;;;;;;;;;5015753;28;20194;-80
2023/06/23 03:55:31;;;;;;;25.58;9.73;;;;;;;;;;5010974;28;20049;-83
2023/06/23 03:58:02;;;;;;;19.30;9.90;;;;;;;;;;5020733;28;20046;-83
2023/06/23 04:00:30;;;;;;;25.15;9.30;;;;;;;;;;5033875;28;20083;-81
2023/06/23 04:02:57;;;;;;;21.95;8.75;;;;;;;;;;5050133;28;20053;-82
2023/06/23 04:05:25;;;;;;;20.33;9.55;;;;;;;;;;5049580;28;20045;-82
2023/06/23 04:07:52;;;;;;;17.38;9.30;;;;;;;;;;5049085;28;20412;-79
2023/06/23 04:10:20;;;;;;;24.35;9.40;;;;;;;;;;5044281;28;20453;-81
2023/06/23 04:12:47;;;;;;;16.40;8.68;;;;;;;;;;5029540;28;20509;-82
2023/06/23 04:15:18;;;;;;;17.80;8.60;;;;;;;;;;5044872;28;20467;-81
2023/06/23 04:17:44;;;;;;;25.27;9.13;;;;;;;;;;5038524;28;20088;-84
2023/06/23 04:20:12;;;;;;;24.45;8.93;;;;;;;;;;5039013;28;20049;-81
2023/06/23 04:22:40;;;;;;;20.17;8.23;;;;;;;;;;5049337;28;20072;-85
2023/06/23 04:25:08;;;;;;;21.42;7.88;;;;;;;;;;5046287;28;20128;-82
2023/06/23 04:27:36;;;;;;;19.00;7.93;;;;;;;;;;5061466;28;20068;-81
2023/06/23 04:30:05;;;;;;;18.10;7.78;;;;;;;;;;5040391;28;20053;-81
2023/06/23 04:32:34;;;;;;;15.93;7.78;;;;;;;;;;5029131;28;20261;-81
2023/06/23 04:35:04;;;;;;;18.55;6.70;;;;;;;;;;5047217;28;20051;-80
2023/06/23 04:37:37;;;;;;;13.52;7.38;;;;;;;;;;5045301;28;20111;-82
2023/06/23 04:40:08;;;;;;;11.68;7.00;;;;;;;;;;5041712;28;20465;-80
2023/06/23 04:42:46;;;;;;;16.98;6.65;;;;;;;;;;5041609;28;20053;-83
2023/06/23 04:45:16;;;;;;;16.67;6.47;;;;;;;;;;5045163;28;20049;-80
2023/06/23 04:47:43;;;;;;;14.45;6.13;;;;;;;;;;5050053;28;20049;-79
2023/06/23 04:50:12;;;;;;;11.95;6.00;;;;;;;;;;5044413;28;20157;-81
2023/06/23 04:52:43;;;;;;;12.52;5.35;;;;;;;;;;5043256;28;20046;-81
2023/06/23 04:55:13;;;;;;;15.27;5.07;;;;;;;;;;5042147;28;20046;-81
2023/06/23 04:57:41;;;;;;;8.75;4.80;;;;;;;;;;5042397;28;20053;-81
2023/06/23 05:00:09;;;;;;;17.65;5.15;;;;;;;;;;5037325;28;20045;-80
2023/06/23 05:02:39;;;;;;;11.00;5.07;;;;;;;;;;5037795;28;20096;-79
2023/06/23 05:05:07;;;;;;;9.02;4.60;;;;;;;;;;5049618;28;20049;-80
2023/06/23 05:07:35;;;;;;;11.20;4.45;;;;;;;;;;5031799;28;20038;-80
2023/06/23 05:10:02;;;;;;;8.45;4.53;;;;;;;;;;5037593;28;20072;-83
2023/06/23 05:12:30;;;;;;;12.55;4.65;;;;;;;;;;5059511;28;20088;-82
2023/06/23 05:14:59;;;;;;;7.85;3.97;;;;;;;;;;5027062;28;20655;-82
2023/06/23 05:17:26;;;;;;;13.43;4.32;;;;;;;;;;5043229;28;20050;-81
2023/06/23 05:19:53;;;;;;;9.15;3.90;;;;;;;;;;5026116;28;20105;-83
2023/06/23 05:22:22;;;;;;;12.10;3.88;;;;;;;;;;5021424;28;20050;-80
2023/06/23 05:24:53;;;;;;;8.20;3.65;;;;;;;;;;5012289;28;20441;-82
2023/06/23 05:27:22;;;;;;;12.73;3.85;;;;;;;;;;5012130;28;20061;-79
2023/06/23 05:29:50;;;;;;;6.43;2.95;;;;;;;;;;5026536;28;20064;-84
2023/06/23 05:32:18;;;;;;;8.23;3.00;;;;;;;;;;5039369;28;20060;-81
2023/06/23 05:34:46;;;;;;;4.88;2.83;;;;;;;;;;5040566;28;20084;-81
2023/06/23 05:37:14;;;;;;;6.40;2.47;;;;;;;;;;5041237;28;20053;-81
2023/06/23 05:39:41;;;;;;;10.40;2.67;;;;;;;;;;5040121;28;20041;-80
2023/06/23 05:42:08;;;;;;;3.50;2.20;;;;;;;;;;5033065;28;20041;-81
2023/06/23 05:44:40;;;;;;;5.70;2.20;;;;;;;;;;5041481;28;20160;-80
2023/06/23 05:47:09;;;;;;;2.70;1.73;;;;;;;;;;5051519;28;20569;-80
2023/06/23 05:49:41;;;;;;;3.70;1.70;;;;;;;;;;5054697;28;20032;-81
2023/06/23 05:52:11;;;;;;;7.20;1.52;;;;;;;;;;5062555;28;20040;-82
2023/06/23 05:54:39;;;;;;;6.57;1.25;;;;;;;;;;5074838;28;20036;-80
2023/06/23 05:57:07;;;;;;;4.90;0.90;;;;;;;;;;5080175;28;20465;-82
2023/06/23 05:59:39;;;;;;;2.00;1.10;;;;;;;;;;5053912;28;20489;-80
2023/06/23 06:02:08;;;;;;;2.25;0.98;;;;;;;;;;5050530;28;20083;-79
2023/06/23 06:04:37;;;;;;;3.50;1.23;;;;;;;;;;5043478;28;20049;-83
2023/06/23 06:07:05;;;;;;;5.13;1.00;;;;;;;;;;5040579;28;20077;-81
2023/06/23 06:09:33;;;;;;;2.05;0.90;;;;;;;;;;5050857;28;20068;-80
2023/06/23 06:11:59;;;;;;;3.70;1.17;;;;;;;;;;5052569;28;20103;-82
2023/06/23 06:14:33;;;;;;;4.40;1.63;;;;;;;;;;5052418;28;20048;-80
2023/06/23 06:17:06;;;;;;;1.80;1.25;;;;;;;;;;5050568;28;20540;-78
2023/06/23 06:19:33;;;;;;;2.78;1.20;;;;;;;;;;5051461;28;20047;-81
2023/06/23 06:22:01;;;;;;;2.47;1.20;;;;;;;;;;5050241;28;20067;-80
2023/06/23 06:24:29;;;;;;;2.30;1.08;;;;;;;;;;5050962;28;20045;-78
2023/06/23 06:26:56;;;;;;;3.97;1.30;;;;;;;;;;5049998;28;20037;-80
2023/06/23 06:29:24;;;;;;;4.65;1.25;;;;;;;;;;5050458;28;20041;-81
2023/06/23 06:31:51;;;;;;;4.10;1.40;;;;;;;;;;5051028;28;20095;-80
2023/06/23 06:34:19;;;;;;;2.15;1.20;;;;;;;;;;5051450;28;20404;-80
2023/06/23 06:36:47;;;;;;;1.70;1.08;;;;;;;;;;5052623;28;20041;-81
2023/06/23 06:39:13;;;;;;;8.18;1.30;;;;;;;;;;5044570;28;20412;-80
2023/06/23 06:41:40;;;;;;;5.68;1.30;;;;;;;;;;5038202;28;20565;-79
2023/06/23 06:44:13;;;;;;;4.63;1.70;;;;;;;;;;5032311;28;20057;-79
2023/06/23 06:46:43;;;;;;;5.07;1.73;;;;;;;;;;5030675;28;20049;-82
2023/06/23 06:49:10;;;;;;;2.95;2.10;;;;;;;;;;5030641;28;20137;-81
2023/06/23 06:51:40;;;;;;;7.70;2.85;;;;;;;;;;5029993;28;20073;-79
2023/06/23 06:54:07;;;;;;;6.28;3.20;;;;;;;;;;5029358;28;20037;-79
2023/06/23 06:56:34;;;;;;;3.15;2.58;;;;;;;;;;5022342;28;20049;-79
2023/06/23 06:59:02;;;;;;;6.55;3.00;;;;;;;;;;5008267;28;20049;-78
2023/06/23 07:01:29;;;;;;;5.68;2.72;;;;;;;;;;5009803;28;20053;-81
2023/06/23 07:03:57;;;;;;;6.22;2.58;;;;;;;;;;5012210;28;20046;-81
2023/06/23 07:06:25;;;;;;;4.03;2.60;;;;;;;;;;5007673;28;20042;-82
2023/06/23 07:08:52;;;;;;;10.38;2.88;;;;;;;;;;5010350;28;20046;-80
2023/06/23 07:11:21;;;;;;;3.45;2.60;;;;;;;;;;5016621;28;20050;-80
2023/06/23 07:13:48;;;;;;;5.20;2.67;;;;;;;;;;5009573;28;20042;-80
2023/06/23 07:16:15;;;;;;;4.38;2.90;;;;;;;;;;4991624;28;20107;-81
2023/06/23 07:18:41;;;;;;;4.68;2.95;;;;;;;;;;5010830;28;20109;-81
2023/06/23 07:21:10;;;;;;;5.72;3.58;;;;;;;;;;5024668;28;20065;-81
2023/06/23 07:23:37;;;;;;;5.13;3.25;;;;;;;;;;5009613;28;20482;-81
2023/06/23 07:26:04;;;;;;;7.53;3.30;;;;;;;;;;5008729;28;20111;-82
2023/06/23 07:28:31;;;;;;;9.15;3.03;;;;;;;;;;5009637;28;20046;-81
2023/06/23 07:30:58;;;;;;;9.20;3.30;;;;;;;;;;5016024;28;20045;-82
2023/06/23 07:33:24;;;;;;;4.68;2.70;;;;;;;;;;5046184;28;20588;-80
2023/06/23 07:35:54;;;;;;;6.32;2.90;;;;;;;;;;5029028;28;20045;-82
2023/06/23 07:38:21;;;;;;;6.97;2.97;;;;;;;;;;5031228;28;20051;-81
2023/06/23 07:40:47;;;;;;;6.10;2.60;;;;;;;;;;5030232;28;20065;-81
2023/06/23 07:43:14;;;;;;;6.32;2.55;;;;;;;;;;5033396;28;20049;-82
2023/06/23 07:45:43;;;;;;;4.55;2.60;;;;;;;;;;5040867;28;20125;-80
2023/06/23 07:48:10;;;;;;;9.00;2.78;;;;;;;;;;5028216;28;20116;-81
2023/06/23 07:50:40;;;;;;;6.53;2.67;;;;;;;;;;5027797;28;20459;-80
2023/06/23 07:53:10;;;;;;;5.05;2.78;;;;;;;;;;5046902;28;20045;-79
2023/06/23 07:55:36;;;;;;;4.00;2.90;;;;;;;;;;5028536;28;20149;-78
2023/06/23 07:58:03;;;;;;;3.90;2.63;;;;;;;;;;5028701;28;20064;-84
2023/06/23 08:00:30;;;;;;;4.80;3.20;;;;;;;;;;5044328;28;20053;-82
2023/06/23 08:02:57;;;;;;;8.70;3.28;;;;;;;;;;5031291;28;20065;-81
2023/06/23 08:05:24;;;;;;;4.13;2.90;;;;;;;;;;5038560;28;20052;-80
2023/06/23 08:07:51;;;;;;;3.83;2.40;;;;;;;;;;5050785;28;20060;-82
2023/06/23 08:10:18;;;;;;;4.95;2.78;;;;;;;;;;5050021;28;20049;-79
2023/06/23 08:12:45;;;;;;;6.32;2.70;;;;;;;;;;5050151;28;20508;-82
2023/06/23 08:15:14;;;;;;;6.35;2.50;;;;;;;;;;5049775;28;20136;-82
2023/06/23 08:17:41;;;;;;;4.50;2.35;;;;;;;;;;5040670;28;20104;-81
2023/06/23 08:20:08;;;;;;;3.13;2.03;;;;;;;;;;5065493;28;20048;-83
2023/06/23 08:22:37;;;;;;;2.85;1.80;;;;;;;;;;5050334;28;20033;-81
2023/06/23 08:25:04;;;;;;;6.45;2.20;;;;;;;;;;5049917;28;20493;-80
2023/06/23 08:27:31;;;;;;;4.18;2.00;;;;;;;;;;5048447;28;20041;-81
2023/06/23 08:29:57;;;;;;;4.63;1.92;;;;;;;;;;5050531;28;20116;-80
2023/06/23 08:32:24;;;;;;;2.38;1.80;;;;;;;;;;5049897;28;20049;-80
2023/06/23 08:34:54;;;;;;;2.20;1.70;;;;;;;;;;5029402;28;20614;-81
2023/06/23 08:37:31;;;;;;;4.72;1.85;;;;;;;;;;5028010;28;20056;-80
2023/06/23 08:39:58;;;;;;;8.32;2.03;;;;;;;;;;5012213;28;20072;-83
2023/06/23 08:42:25;;;;;;;2.53;1.60;;;;;;;;;;5044117;28;20033;-80
2023/06/23 08:44:55;;;;;;;5.45;2.08;;;;;;;;;;5031016;28;20472;-80
2023/06/23 08:47:29;;;;;;;2.92;1.80;;;;;;;;;;5030095;28;20045;-80
2023/06/23 08:50:09;;;;;;;3.80;2.08;;;;;;;;;;5030824;28;20500;-80
2023/06/23 08:52:45;;;;;;;3.15;2.10;;;;;;;;;;5017915;28;20098;-79
2023/06/23 08:55:15;;;;;;;3.38;2.10;;;;;;;;;;5029435;28;20045;-79
2023/06/23 08:57:42;;;;;;;3.35;2.00;;;;;;;;;;5029881;28;20550;-80
2023/06/23 09:00:10;;;;;;;5.10;1.73;;;;;;;;;;5044253;28;20107;-80
2023/06/23 09:02:37;;;;;;;2.30;1.60;;;;;;;;;;5029349;28;20131;-80
2023/06/23 09:05:06;;;;;;;5.95;1.70;;;;;;;;;;5029783;28;20041;-79
2023/06/23 09:07:33;;;;;;;5.28;1.63;;;;;;;;;;5030223;28;20484;-80
2023/06/23 09:10:01;;;;;;;4.90;1.52;;;;;;;;;;5044523;28;20045;-81
2023/06/23 09:12:28;;;;;;;2.97;1.60;;;;;;;;;;5028438;28;20052;-78
2023/06/23 09:14:57;;;;;;;2.17;1.40;;;;;;;;;;5028156;28;20052;-81
2023/06/23 09:17:24;;;;;;;4.72;1.95;;;;;;;;;;5043210;28;20239;-80
2023/06/23 09:19:54;;;;;;;1.70;1.38;;;;;;;;;;5031168;28;20048;-79
2023/06/23 09:22:21;;;;;;;2.35;1.30;;;;;;;;;;5031804;28;20054;-78
2023/06/23 09:24:49;;;;;;;2.92;1.70;;;;;;;;;;5031415;28;20034;-80
2023/06/23 09:27:17;;;;;;;2.90;1.58;;;;;;;;;;5045418;28;20498;-79
2023/06/23 09:29:58;;;;;;;1.75;1.38;;;;;;;;;;5030326;28;20037;-79
2023/06/23 09:32:28;;;;;;;2.38;1.38;;;;;;;;;;5030896;28;20119;-79
2023/06/23 09:34:55;;;;;;;1.75;1.30;;;;;;;;;;5032041;28;20056;-80
2023/06/23 09:37:22;;;;;;;3.75;1.30;;;;;;;;;;5031387;28;20428;-83
2023/06/23 09:39:50;;;;;;;2.00;1.20;;;;;;;;;;5031161;28;20033;-79
2023/06/23 09:42:17;;;;;;;2.72;1.08;;;;;;;;;;5031089;28;20053;-79
2023/06/23 09:44:47;;;;;;;1.52;1.20;;;;;;;;;;5046810;28;20054;-80
2023/06/23 09:47:14;;;;;;;4.47;1.20;;;;;;;;;;5010152;28;20486;-80
2023/06/23 09:49:42;;;;;;;3.30;1.20;;;;;;;;;;5028647;28;20049;-81
2023/06/23 09:52:12;;;;;;;3.97;1.10;;;;;;;;;;5028883;28;20122;-80
2023/06/23 09:54:39;;;;;;;3.33;1.20;;;;;;;;;;5010548;28;20048;-79
2023/06/23 09:57:07;;;;;;;6.10;1.02;;;;;;;;;;5033465;28;20042;-80
2023/06/23 09:59:36;;;;;;;4.10;1.10;;;;;;;;;;5011718;28;20487;-80
2023/06/23 10:02:03;;;;;;;1.38;1.05;;;;;;;;;;5010095;28;20092;-81
2023/06/23 10:04:30;;;;;;;2.25;1.10;;;;;;;;;;5012725;28;20049;-80
2023/06/23 10:06:57;;;;;;;1.00;0.82;;;;;;;;;;5009923;28;20524;-80
2023/06/23 10:09:25;;;;;;;2.70;1.20;;;;;;;;;;5002761;28;20486;-78
2023/06/23 10:11:52;;;;;;;1.35;0.90;;;;;;;;;;5016671;28;20048;-80
2023/06/23 10:14:18;;;;;;;2.45;1.00;;;;;;;;;;5011109;28;20296;-80
2023/06/23 10:16:45;;;;;;;1.70;0.95;;;;;;;;;;5031059;28;20127;-79
2023/06/23 10:19:12;;;;;;;2.70;1.20;;;;;;;;;;5031257;28;20056;-79
2023/06/23 10:21:40;;;;;;;2.83;1.20;;;;;;;;;;5027787;28;20049;-78
2023/06/23 10:24:13;;;;;;;1.17;0.90;;;;;;;;;;5023097;28;20055;-80
2023/06/23 10:26:40;;;;;;;1.30;1.00;;;;;;;;;;5001953;28;20042;-80
2023/06/23 10:29:08;;;;;;;2.88;1.10;;;;;;;;;;5016580;28;20056;-79
2023/06/23 10:31:37;;;;;;;5.43;1.13;;;;;;;;;;5033705;28;20132;-78
2023/06/23 10:34:05;;;;;;;1.63;1.10;;;;;;;;;;5041133;28;20052;-80
2023/06/23 10:36:35;;;;;;;2.65;1.10;;;;;;;;;;5036773;28;20120;-80
2023/06/23 10:39:04;;;;;;;5.63;0.90;;;;;;;;;;5020883;28;20572;-80
2023/06/23 10:41:33;;;;;;;0.90;0.80;;;;;;;;;;5039507;28;20045;-79
2023/06/23 10:44:02;;;;;;;5.20;0.77;;;;;;;;;;5042021;28;20397;-78
2023/06/23 10:46:29;;;;;;;3.25;1.08;;;;;;;;;;5042661;28;20037;-80
2023/06/23 10:48:56;;;;;;;1.75;0.88;;;;;;;;;;5058666;28;20117;-79
2023/06/23 10:51:24;;;;;;;1.65;1.00;;;;;;;;;;5046126;28;20127;-80
2023/06/23 10:53:57;;;;;;;1.40;0.88;;;;;;;;;;5051449;28;20059;-80
2023/06/23 10:56:29;;;;;;;2.00;0.75;;;;;;;;;;5040238;28;20077;-79
2023/06/23 10:58:57;;;;;;;1.02;0.75;;;;;;;;;;5047369;28;20098;-80
2023/06/23 11:01:26;;;;;;;1.58;0.85;;;;;;;;;;5060029;28;20052;-79
2023/06/23 11:03:56;;;;;;;1.67;0.93;;;;;;;;;;5071253;28;20127;-80
2023/06/23 11:06:27;;;;;;;0.70;0.60;;;;;;;;;;5048665;28;20053;-79
2023/06/23 11:08:55;;;;;;;2.15;0.98;;;;;;;;;;5042889;28;20052;-81
2023/06/23 11:11:32;;;;;;;5.00;0.90;;;;;;;;;;5030901;28;20041;-83
2023/06/23 11:13:59;;;;;;;2.00;0.85;;;;;;;;;;5058325;28;20048;-79
2023/06/23 11:16:27;;;;;;;0.98;0.75;;;;;;;;;;5049292;28;20080;-80
2023/06/23 11:18:57;;;;;;;1.00;0.70;;;;;;;;;;5032463;28;20049;-81
2023/06/23 11:21:32;;;;;;;6.63;0.95;;;;;;;;;;5037449;28;20042;-81
2023/06/23 11:24:15;;;;;;;0.82;0.77;;;;;;;;;;5043114;28;20128;-79
2023/06/23 11:27:00;;;;;;;0.60;0.60;;;;;;;;;;5031420;28;20041;-82
2023/06/23 11:29:27;;;;;;;0.73;0.50;;;;;;;;;;5045085;28;20095;-80
2023/06/23 11:32:06;;;;;;;2.95;0.60;;;;;;;;;;5032903;28;20052;-80
2023/06/23 11:34:49;;;;;;;1.42;0.60;;;;;;;;;;5030700;28;20073;-80
2023/06/23 11:37:16;;;;;;;2.50;0.50;;;;;;;;;;5011610;28;20413;-79
2023/06/23 11:39:43;;;;;;;1.25;0.90;;;;;;;;;;5026838;28;20045;-81
2023/06/23 11:42:09;;;;;;;0.90;0.60;;;;;;;;;;5043391;28;20048;-79
2023/06/23 11:44:36;;;;;;;1.67;0.70;;;;;;;;;;5028313;28;20068;-81
2023/06/23 11:47:03;;;;;;;1.20;0.50;;;;;;;;;;5027008;28;20037;-80
2023/06/23 11:49:31;;;;;;;3.17;0.68;;;;;;;;;;5029515;28;20045;-79
2023/06/23 11:52:02;;;;;;;1.35;0.55;;;;;;;;;;5028473;28;20064;-80
2023/06/23 11:54:31;;;;;;;0.55;0.47;;;;;;;;;;5045432;28;20046;-79
2023/06/23 11:57:03;;;;;;;1.52;0.50;;;;;;;;;;5027658;28;20486;-79
2023/06/23 11:59:37;;;;;;;3.40;0.40;;;;;;;;;;5011407;28;20037;-80
2023/06/23 12:02:05;;;;;;;0.57;0.40;;;;;;;;;;5030139;28;20497;-79
2023/06/23 12:04:32;;;;;;;3.90;0.40;;;;;;;;;;5029168;28;20049;-81
2023/06/23 12:06:59;;;;;;;0.93;0.60;;;;;;;;;;5027594;28;20045;-79
2023/06/23 12:09:27;;;;;;;0.45;0.40;;;;;;;;;;5011871;28;20049;-79
2023/06/23 12:11:54;;;;;;;3.13;0.60;;;;;;;;;;5029425;28;20037;-78
2023/06/23 12:14:31;;;;;;;0.80;0.40;;;;;;;;;;5030505;28;20051;-80
2023/06/23 12:17:07;;;;;;;0.82;0.50;;;;;;;;;;5018898;28;20132;-80
2023/06/23 12:19:34;;;;;;;0.70;0.50;;;;;;;;;;5012594;28;20045;-82
2023/06/23 12:22:02;;;;;;;0.52;0.40;;;;;;;;;;5030558;28;20056;-81
2023/06/23 12:24:29;;;;;;;3.95;0.60;;;;;;;;;;5029261;28;20103;-79
2023/06/23 12:26:57;;;;;;;1.73;0.50;;;;;;;;;;5026823;28;20057;-80
2023/06/23 12:29:23;;;;;;;1.70;0.70;;;;;;;;;;5030276;28;20054;-79
2023/06/23 12:31:55;;;;;;;1.33;0.75;;;;;;;;;;5029318;28;20069;-79
2023/06/23 12:34:28;;;;;;;0.57;0.50;;;;;;;;;;5030992;28;20049;-80
2023/06/23 12:37:01;;;;;;;0.60;0.40;;;;;;;;;;5027908;28;20041;-79
2023/06/23 12:39:29;;;;;;;0.40;0.40;;;;;;;;;;5031080;28;20051;-80
2023/06/23 12:41:57;;;;;;;1.05;0.90;;;;;;;;;;5045182;28;20061;-80
2023/06/23 12:44:25;;;;;;;0.70;0.70;;;;;;;;;;5028678;28;20041;-80
2023/06/23 12:46:56;;;;;;;2.10;0.60;;;;;;;;;;5029206;28;20050;-80
2023/06/23 12:49:31;;;;;;;3.40;0.40;;;;;;;;;;5030443;28;20056;-79
2023/06/23 12:52:11;;;;;;;2.00;0.50;;;;;;;;;;5027396;28;20054;-80
2023/06/23 12:54:38;;;;;;;0.45;0.40;;;;;;;;;;5020036;28;20089;-79
2023/06/23 12:57:04;;;;;;;0.60;0.40;;;;;;;;;;5017114;28;20046;-81
2023/06/23 12:59:31;;;;;;;1.10;0.47;;;;;;;;;;5022788;28;20061;-80
2023/06/23 13:02:01;;;;;;;3.58;0.38;;;;;;;;;;5033699;28;20044;-81
2023/06/23 13:04:28;;;;;;;0.95;0.28;;;;;;;;;;5015518;28;20168;-82
2023/06/23 13:06:54;;;;;;;2.35;0.70;;;;;;;;;;5019334;28;20132;-79
2023/06/23 13:09:21;;;;;;;1.55;0.80;;;;;;;;;;5030242;28;20052;-81
2023/06/23 13:11:48;;;;;;;1.10;0.73;;;;;;;;;;5047775;28;20069;-81
2023/06/23 13:14:14;;;;;;;1.00;0.90;;;;;;;;;;5055617;28;20057;-80
2023/06/23 13:16:43;;;;;;;2.50;0.90;;;;;;;;;;5061680;28;20116;-81
2023/06/23 13:19:11;;;;;;;0.52;0.50;;;;;;;;;;5055551;28;20655;-80
2023/06/23 13:21:44;;;;;;;0.63;0.30;;;;;;;;;;5077771;28;20038;-80
2023/06/23 13:24:10;;;;;;;0.47;0.30;;;;;;;;;;5049439;28;20043;-79
2023/06/23 13:26:37;;;;;;;3.17;0.47;;;;;;;;;;5041462;28;20045;-81
2023/06/23 13:29:04;;;;;;;0.70;0.50;;;;;;;;;;5055449;28;20049;-82
2023/06/23 13:31:31;;;;;;;0.50;0.45;;;;;;;;;;5058664;28;20037;-80
2023/06/23 13:33:57;;;;;;;2.05;0.70;;;;;;;;;;5043338;28;20043;-81
2023/06/23 13:36:24;;;;;;;1.00;0.77;;;;;;;;;;5036516;28;20045;-83
2023/06/23 13:38:50;;;;;;;1.48;1.13;;;;;;;;;;5031289;28;20069;-80
2023/06/23 13:41:17;;;;;;;1.63;1.50;;;;;;;;;;5030507;28;20132;-80
2023/06/23 13:43:44;;;;;;;3.83;1.80;;;;;;;;;;5048525;28;20108;-82
2023/06/23 13:46:11;;;;;;;2.50;1.77;;;;;;;;;;5032140;28;20041;-79
2023/06/23 13:48:38;;;;;;;2.08;1.85;;;;;;;;;;5050912;28;20041;-82
2023/06/23 13:51:04;;;;;;;1.58;1.30;;;;;;;;;;5053509;28;20076;-82
2023/06/23 13:53:32;;;;;;;1.40;1.10;;;;;;;;;;5067998;28;20504;-81
2023/06/23 13:55:58;;;;;;;1.63;1.52;;;;;;;;;;5065294;28;20047;-81
2023/06/23 13:58:25;;;;;;;2.25;2.08;;;;;;;;;;5051938;28;20049;-83
2023/06/23 14:00:55;;;;;;;2.63;2.42;;;;;;;;;;5050732;28;20477;-82
2023/06/23 14:03:21;;;;;;;2.63;2.42;;;;;;;;;;5050849;28;20124;-81
2023/06/23 14:05:48;;;;;;;2.30;2.10;;;;;;;;;;5050864;28;20045;-80
2023/06/23 14:08:19;;;;;;;3.88;2.63;;;;;;;;;;5066363;28;20473;-83
2023/06/23 14:10:46;;;;;;;2.60;1.98;;;;;;;;;;5049819;28;20146;-82
2023/06/23 14:13:14;;;;;;;3.35;1.92;;;;;;;;;;5049708;28;20080;-82
2023/06/23 14:15:40;;;;;;;2.35;2.15;;;;;;;;;;5046279;28;20252;-82
2023/06/23 14:18:07;;;;;;;3.10;2.80;;;;;;;;;;5035536;28;20049;-82
2023/06/23 14:20:34;;;;;;;3.00;2.50;;;;;;;;;;5028795;28;20059;-82
2023/06/23 14:23:01;;;;;;;2.65;2.45;;;;;;;;;;5047471;28;20142;-83
2023/06/23 14:25:30;;;;;;;2.83;2.22;;;;;;;;;;5020786;28;20061;-84
2023/06/23 14:27:57;;;;;;;2.53;2.33;;;;;;;;;;5046896;28;20115;-84
2023/06/23 14:30:26;;;;;;;2.90;2.50;;;;;;;;;;5006798;28;20058;-83
2023/06/23 14:32:55;;;;;;;3.28;2.60;;;;;;;;;;5027962;28;20049;-81
2023/06/23 14:35:23;;;;;;;3.22;2.92;;;;;;;;;;5025913;28;20143;-82
2023/06/23 14:37:49;;;;;;;2.80;2.60;;;;;;;;;;5013470;28;20816;-83
2023/06/23 14:40:16;;;;;;;3.45;2.35;;;;;;;;;;5006524;28;20132;-81
2023/06/23 14:42:43;;;;;;;3.65;3.17;;;;;;;;;;5023493;28;20152;-82
2023/06/23 14:45:10;;;;;;;3.20;2.90;;;;;;;;;;5028070;28;20600;-80
2023/06/23 14:47:36;;;;;;;4.95;2.65;;;;;;;;;;5027139;28;20128;-83